Time;durP1;ratioP1;P1;durP2;ratioP2;P2;SDS_P1;SDS_P2;PMS_P1;PMS_P2;Temp;Humidity;BMP_temperature;BMP_pressure;BME280_temperature;BME280_humidity;BME280_pressure;Samples;Min_cycle;Max_cycle;Signal;HPM_P1;HPM_P2
2022/05/20 00:00:20;;;;;;;27.50;14.98;;;;;;;17.28;83.79;102092.22;5000796;28;20053;-49
2022/05/20 00:02:48;;;;;;;27.77;15.68;;;;;;;17.29;83.89;102094.69;5016224;28;20049;-48
2022/05/20 00:05:16;;;;;;;23.25;15.45;;;;;;;17.24;83.46;102091.97;5015996;28;20048;-51
2022/05/20 00:07:44;;;;;;;22.15;15.45;;;;;;;17.21;83.38;102089.78;5008477;28;20050;-47
2022/05/20 00:10:17;;;;;;;24.55;16.17;;;;;;;17.13;83.53;102082.09;5015103;28;20045;-48
2022/05/20 00:12:45;;;;;;;22.42;15.40;;;;;;;17.08;84.04;102082.94;5015222;28;20522;-48
2022/05/20 00:15:19;;;;;;;20.70;14.45;;;;;;;17.07;84.18;102080.47;5015946;28;20137;-47
2022/05/20 00:17:47;;;;;;;22.35;15.02;;;;;;;17.07;84.25;102086.78;4993179;28;20130;-48
2022/05/20 00:20:17;;;;;;;20.45;14.65;;;;;;;17.08;84.75;102087.59;4996072;28;20050;-48
2022/05/20 00:22:45;;;;;;;23.25;14.75;;;;;;;17.08;84.13;102088.47;4998932;28;20042;-47
2022/05/20 00:28:01;;;;;;;24.17;15.85;;;;;;;17.07;84.05;102091.47;4997210;28;20097;-48
2022/05/20 00:30:29;;;;;;;22.35;15.00;;;;;;;17.06;83.73;102087.09;4998149;28;20073;-48
2022/05/20 00:32:57;;;;;;;24.95;16.35;;;;;;;17.01;83.39;102093.44;4998182;28;20392;-50
2022/05/20 00:35:26;;;;;;;21.10;15.07;;;;;;;16.97;83.38;102086.84;5015426;28;20493;-50
2022/05/20 00:37:55;;;;;;;21.92;15.90;;;;;;;16.95;83.76;102089.03;4990256;28;20643;-48
2022/05/20 00:40:25;;;;;;;22.67;15.52;;;;;;;16.92;83.08;102087.66;5015180;28;20049;-48
2022/05/20 00:43:15;;;;;;;24.50;16.00;;;;;;;16.89;83.29;102085.50;5017465;28;20139;-48
2022/05/20 00:45:44;;;;;;;20.30;15.57;;;;;;;16.88;83.24;102083.81;5035226;28;20041;-49
2022/05/20 00:48:12;;;;;;;25.50;15.20;;;;;;;16.88;83.38;102081.06;5032030;28;20512;-49
2022/05/20 00:50:44;;;;;;;23.40;15.18;;;;;;;16.88;83.34;102089.31;5022049;28;20041;-47
2022/05/20 00:53:13;;;;;;;22.52;15.48;;;;;;;16.87;82.95;102086.88;5017731;28;20443;-52
2022/05/20 00:55:43;;;;;;;23.35;15.13;;;;;;;16.85;83.23;102089.06;5017208;28;20046;-48
2022/05/20 00:58:15;;;;;;;26.48;16.63;;;;;;;16.81;83.09;102091.53;5034355;28;20053;-47
2022/05/20 01:00:46;;;;;;;20.80;14.05;;;;;;;16.75;83.31;102089.91;5008954;28;20484;-48
2022/05/20 01:03:20;;;;;;;22.08;15.60;;;;;;;16.75;83.74;102084.38;4997404;28;20412;-50
2022/05/20 01:06:08;;;;;;;21.15;16.10;;;;;;;16.73;83.13;102087.41;5001374;28;20056;-48
2022/05/20 01:08:43;;;;;;;25.50;16.25;;;;;;;16.59;83.40;102084.41;5011070;28;20046;-51
2022/05/20 01:11:31;;;;;;;24.95;16.85;;;;;;;16.52;83.76;102083.03;5028494;28;20057;-52
2022/05/20 01:14:24;;;;;;;23.63;16.40;;;;;;;16.40;83.93;102075.94;5032456;28;20050;-50
2022/05/20 01:17:12;;;;;;;20.27;15.45;;;;;;;16.30;85.11;102081.41;5012265;28;20068;-47
2022/05/20 01:19:46;;;;;;;20.13;15.02;;;;;;;16.34;85.71;102077.00;5021253;28;20049;-46
2022/05/20 01:22:33;;;;;;;22.27;14.95;;;;;;;16.37;85.35;102072.88;5033206;28;20523;-49
2022/05/20 01:25:02;;;;;;;21.83;14.60;;;;;;;16.42;85.28;102078.38;5033528;28;20412;-46
2022/05/20 01:27:30;;;;;;;21.45;14.98;;;;;;;16.49;84.69;102081.66;5016315;28;20048;-49
2022/05/20 01:29:58;;;;;;;19.55;14.43;;;;;;;16.53;83.79;102080.03;5022339;28;20042;-50
2022/05/20 01:32:26;;;;;;;18.90;14.90;;;;;;;16.54;83.82;102078.09;5016926;28;20053;-50
2022/05/20 01:34:53;;;;;;;20.92;15.15;;;;;;;16.54;83.83;102070.66;5026888;28;20064;-50
2022/05/20 01:37:21;;;;;;;21.00;15.23;;;;;;;16.51;83.61;102073.97;5014277;28;20042;-49
2022/05/20 01:39:48;;;;;;;20.77;15.63;;;;;;;16.47;83.39;102067.38;5025042;28;20041;-48
2022/05/20 01:42:24;;;;;;;22.95;16.30;;;;;;;16.46;83.46;102071.22;5000147;28;20065;-48
2022/05/20 01:44:59;;;;;;;22.23;15.65;;;;;;;16.45;83.98;102074.25;4964451;28;20553;-46
2022/05/20 01:48:04;;;;;;;20.17;15.35;;;;;;;16.39;83.87;102060.50;4977505;28;20056;-47
2022/05/20 01:50:38;;;;;;;19.45;13.95;;;;;;;16.38;84.04;102058.06;4948691;29;20122;-47
2022/05/20 01:53:24;;;;;;;26.50;16.05;;;;;;;16.42;84.27;102053.63;4989174;28;20072;-47
2022/05/20 01:56:15;;;;;;;21.85;16.30;;;;;;;16.47;84.22;102050.03;4996827;28;20166;-48
2022/05/20 01:58:57;;;;;;;21.25;15.93;;;;;;;16.49;84.17;102051.41;4961240;28;20050;-48
2022/05/20 02:01:38;;;;;;;21.08;16.38;;;;;;;16.52;84.51;102052.78;5011974;28;20042;-44
2022/05/20 02:04:10;;;;;;;20.40;15.73;;;;;;;16.51;84.27;102040.13;4996765;28;20412;-46
2022/05/20 02:06:41;;;;;;;19.98;15.30;;;;;;;16.53;84.92;102043.44;4995329;28;20038;-48
2022/05/20 02:10:10;;;;;;;21.63;16.10;;;;;;;16.54;84.51;102045.88;4978585;28;20041;-48
2022/05/20 02:12:46;;;;;;;21.65;14.68;;;;;;;16.53;84.87;102052.50;4945165;28;20473;-48
2022/05/20 02:15:23;;;;;;;17.40;14.38;;;;;;;16.51;84.03;102056.66;4986822;28;20054;-46
2022/05/20 02:17:59;;;;;;;17.25;14.05;;;;;;;16.44;84.89;102050.59;4993093;28;20081;-48
2022/05/20 02:20:59;;;;;;;18.53;15.33;;;;;;;16.41;85.56;102046.47;4987866;28;20095;-50
2022/05/20 02:23:31;;;;;;;20.60;16.33;;;;;;;16.39;85.76;102048.69;4961653;28;20297;-51
2022/05/20 02:26:23;;;;;;;19.73;15.20;;;;;;;16.37;85.67;102045.38;4994838;28;20515;-45
2022/05/20 02:28:58;;;;;;;19.17;15.18;;;;;;;16.35;85.48;102037.41;5009817;28;20034;-49
2022/05/20 02:31:34;;;;;;;17.27;14.17;;;;;;;16.29;85.55;102038.53;4980014;28;20045;-50
2022/05/20 02:34:02;;;;;;;16.75;14.15;;;;;;;16.25;85.47;102028.34;4976993;28;20684;-49
2022/05/20 02:36:33;;;;;;;16.52;13.05;;;;;;;16.19;85.82;102030.28;4994240;28;20096;-46
2022/05/20 02:39:02;;;;;;;16.85;13.15;;;;;;;16.11;86.22;102031.63;4994305;28;20046;-51
2022/05/20 02:41:30;;;;;;;16.73;12.73;;;;;;;16.10;86.51;102041.00;4986049;28;20069;-44
2022/05/20 02:43:58;;;;;;;15.73;13.43;;;;;;;16.10;86.06;102041.00;5031571;28;20056;-47
2022/05/20 02:46:26;;;;;;;15.73;12.82;;;;;;;16.08;86.26;102043.19;5032495;28;20044;-49
2022/05/20 02:48:53;;;;;;;16.67;12.45;;;;;;;16.06;85.85;102037.16;5027323;28;20038;-48
2022/05/20 02:51:21;;;;;;;16.23;12.20;;;;;;;16.04;85.95;102036.59;5020330;28;20061;-48
2022/05/20 02:53:49;;;;;;;14.85;12.07;;;;;;;16.01;86.10;102036.34;5033048;28;20132;-50
2022/05/20 02:56:16;;;;;;;15.15;12.45;;;;;;;16.00;86.49;102021.75;5033084;28;20041;-49
2022/05/20 03:04:17;;;;;;;12.32;10.98;;;;;;;16.00;86.23;102035.50;5012988;28;20064;-47
2022/05/20 03:06:50;;;;;;;12.55;11.10;;;;;;;16.01;87.00;102047.31;4995651;28;20039;-45
2022/05/20 03:09:19;;;;;;;16.23;12.18;;;;;;;16.04;87.41;102042.09;5013269;28;20507;-46
2022/05/20 03:11:47;;;;;;;15.40;13.00;;;;;;;16.08;87.18;102037.69;4996213;28;20038;-48
2022/05/20 03:14:18;;;;;;;14.32;12.50;;;;;;;16.06;86.63;102022.59;5027241;28;20049;-48
2022/05/20 03:16:46;;;;;;;14.18;11.93;;;;;;;16.04;86.42;102031.09;5032882;28;20049;-46
2022/05/20 03:19:14;;;;;;;12.88;10.57;;;;;;;16.02;86.44;102027.81;5026849;28;20412;-47
2022/05/20 03:21:42;;;;;;;13.50;11.02;;;;;;;15.96;86.10;102031.66;5025883;28;20512;-47
2022/05/20 03:24:10;;;;;;;12.73;10.65;;;;;;;15.89;86.27;102023.66;5019527;28;20415;-47
2022/05/20 03:26:38;;;;;;;13.05;9.95;;;;;;;15.84;86.22;102023.69;5036943;28;20046;-47
2022/05/20 03:29:06;;;;;;;11.90;10.35;;;;;;;15.81;86.09;102026.16;5010052;28;20050;-46
2022/05/20 03:31:35;;;;;;;11.90;10.38;;;;;;;15.76;86.77;102018.75;5028351;28;20140;-46
2022/05/20 03:34:06;;;;;;;11.95;10.02;;;;;;;15.73;86.92;102019.28;5018762;28;20076;-47
2022/05/20 03:36:37;;;;;;;12.25;9.77;;;;;;;15.76;87.24;102016.00;5036531;28;20072;-46
2022/05/20 03:39:06;;;;;;;12.80;10.18;;;;;;;15.77;86.75;102021.19;5030504;28;20045;-48
2022/05/20 03:41:34;;;;;;;11.48;9.60;;;;;;;15.78;86.01;102027.53;5025245;28;20061;-49
2022/05/20 03:44:04;;;;;;;12.02;9.65;;;;;;;15.74;86.55;102020.94;5014877;28;20050;-47
2022/05/20 03:46:32;;;;;;;11.55;9.18;;;;;;;15.74;86.75;102032.75;4999251;28;20045;-51
2022/05/20 03:49:00;;;;;;;11.30;9.77;;;;;;;15.73;86.42;102039.34;5002667;28;20042;-47
2022/05/20 03:51:27;;;;;;;12.85;9.98;;;;;;;15.70;86.64;102028.88;4997674;28;20482;-52
2022/05/20 03:53:55;;;;;;;11.90;10.45;;;;;;;15.71;87.14;102033.28;4980118;28;20058;-51
2022/05/20 03:56:23;;;;;;;13.15;10.73;;;;;;;15.70;86.60;102031.63;4996420;28;20042;-49
2022/05/20 03:58:50;;;;;;;12.52;10.07;;;;;;;15.68;86.85;102028.31;4980086;28;20043;-51
2022/05/20 04:04:05;;;;;;;12.43;10.25;;;;;;;15.69;86.28;102029.97;4989056;28;20046;-49
2022/05/20 04:06:33;;;;;;;12.38;10.00;;;;;;;15.66;86.11;102036.00;4995296;28;20050;-48
2022/05/20 04:09:00;;;;;;;11.77;9.95;;;;;;;15.65;86.12;102028.03;4999143;28;20038;-49
2022/05/20 04:11:28;;;;;;;13.70;10.98;;;;;;;15.63;85.52;102025.53;4996433;28;20046;-47
2022/05/20 04:13:56;;;;;;;12.98;10.82;;;;;;;15.52;85.83;102007.41;4980308;28;20046;-48
2022/05/20 04:16:24;;;;;;;12.18;10.13;;;;;;;15.37;86.48;101997.22;4996463;28;20034;-47
2022/05/20 04:18:52;;;;;;;11.80;9.70;;;;;;;15.27;87.54;101995.28;4996902;28;20037;-47
2022/05/20 04:21:19;;;;;;;11.45;9.50;;;;;;;15.25;87.35;101985.63;4996232;28;20038;-46
2022/05/20 04:23:47;;;;;;;10.82;8.82;;;;;;;15.19;86.90;101987.56;4997185;28;20058;-47
2022/05/20 04:26:14;;;;;;;10.70;8.55;;;;;;;15.15;87.66;101996.59;4978755;28;20088;-47
2022/05/20 04:28:42;;;;;;;11.90;8.85;;;;;;;15.20;87.57;101991.13;5010449;28;20399;-48
2022/05/20 04:31:12;;;;;;;14.70;10.20;;;;;;;15.15;87.16;101991.94;4995656;28;20050;-48
2022/05/20 04:33:40;;;;;;;13.27;9.95;;;;;;;15.04;88.02;101996.56;4998083;28;20046;-46
2022/05/20 04:36:08;;;;;;;11.75;9.68;;;;;;;14.96;89.00;101994.38;4996736;28;20069;-49
2022/05/20 04:38:36;;;;;;;11.68;9.70;;;;;;;14.99;89.67;101982.03;5013562;28;20053;-46
2022/05/20 04:49:23;;;;;;;14.82;10.40;;;;;;;15.37;89.02;101996.38;5015021;28;19926;-46
2022/05/20 04:51:50;;;;;;;15.98;11.65;;;;;;;15.40;88.90;101998.59;5012351;28;20045;-47
2022/05/20 04:57:05;;;;;;;15.57;11.98;;;;;;;15.39;88.80;101988.69;5003408;28;20050;-50
2022/05/20 04:59:39;;;;;;;17.73;13.00;;;;;;;15.42;89.42;101993.66;4998682;28;20136;-49
2022/05/20 05:02:07;;;;;;;18.45;13.65;;;;;;;15.43;89.46;101992.56;4995254;28;20050;-48
2022/05/20 05:04:35;;;;;;;16.48;13.35;;;;;;;15.40;90.19;102009.59;4995299;28;20042;-48
2022/05/20 05:07:03;;;;;;;16.92;11.82;;;;;;;15.41;90.66;102014.78;4997309;28;20060;-46
2022/05/20 05:09:31;;;;;;;15.43;10.35;;;;;;;15.47;90.79;102016.47;4995354;28;20053;-46
2022/05/20 05:11:58;;;;;;;15.50;9.95;;;;;;;15.58;90.61;102020.03;4995015;28;20046;-47
2022/05/20 05:14:41;;;;;;;15.43;10.85;;;;;;;15.64;89.59;102024.47;4995026;28;20052;-47
2022/05/20 05:17:10;;;;;;;17.80;11.98;;;;;;;15.69;89.26;102016.22;4997637;28;20041;-50
2022/05/20 05:19:39;;;;;;;16.50;12.45;;;;;;;15.66;89.49;102013.22;4994925;28;20041;-47
2022/05/20 05:22:08;;;;;;;21.27;12.95;;;;;;;15.58;89.78;102014.53;4980885;28;20451;-49
2022/05/20 05:24:37;;;;;;;24.98;13.07;;;;;;;15.58;90.01;102006.31;5014266;28;20096;-47
2022/05/20 05:27:05;;;;;;;18.45;11.93;;;;;;;15.66;90.14;102010.47;5004560;28;20073;-46
2022/05/20 05:29:35;;;;;;;17.10;11.70;;;;;;;15.65;90.45;102009.63;4994396;28;20046;-48
2022/05/20 05:32:03;;;;;;;17.92;12.00;;;;;;;15.69;90.48;102012.66;4994615;28;20042;-50
2022/05/20 05:34:31;;;;;;;22.88;13.65;;;;;;;15.66;90.54;102011.28;4994558;28;20055;-47
2022/05/20 05:36:58;;;;;;;24.02;16.67;;;;;;;15.66;90.88;102008.53;4995536;28;20045;-49
2022/05/20 05:39:26;;;;;;;26.75;15.93;;;;;;;15.62;90.95;102001.94;4994072;28;20498;-49
2022/05/20 05:42:08;;;;;;;21.15;15.43;;;;;;;15.62;91.09;102007.41;4798105;28;10000790;-50
2022/05/20 05:44:36;;;;;;;19.70;14.27;;;;;;;15.66;91.30;102008.53;5030424;28;20639;-48
2022/05/20 05:47:04;;;;;;;18.75;14.75;;;;;;;15.67;91.44;101993.69;5021071;28;20128;-46
2022/05/20 05:49:31;;;;;;;23.20;14.00;;;;;;;15.73;91.46;101986.31;4993105;28;20046;-49
2022/05/20 05:51:59;;;;;;;19.13;13.20;;;;;;;15.83;90.36;101989.06;5011599;28;20041;-46
2022/05/20 05:54:27;;;;;;;15.73;10.48;;;;;;;15.84;89.89;101982.44;5010981;28;20053;-47
2022/05/20 05:56:54;;;;;;;15.13;10.55;;;;;;;15.88;89.38;101982.75;5011805;28;20046;-48
2022/05/20 05:59:22;;;;;;;14.73;10.15;;;;;;;15.89;89.03;101989.88;5027396;28;20080;-48
2022/05/20 06:01:50;;;;;;;24.65;16.33;;;;;;;15.90;88.29;101983.28;5030814;28;20411;-48
2022/05/20 06:04:17;;;;;;;63.67;46.97;;;;;;;15.93;88.35;101977.25;5012450;28;20737;-51
2022/05/20 06:06:45;;;;;;;23.23;13.95;;;;;;;15.91;87.80;101973.94;5029762;28;20399;-49
2022/05/20 06:09:13;;;;;;;18.15;11.77;;;;;;;15.87;87.93;101964.59;5018312;28;20736;-49
2022/05/20 06:11:40;;;;;;;26.10;17.73;;;;;;;15.89;87.97;101968.69;5018601;28;20057;-48
2022/05/20 06:14:08;;;;;;;19.77;12.27;;;;;;;15.89;88.60;101956.88;5021251;28;20412;-47
2022/05/20 06:16:40;;;;;;;18.45;12.75;;;;;;;15.96;87.00;101955.50;4995141;28;20030;-49
2022/05/20 06:19:09;;;;;;;20.35;14.02;;;;;;;15.93;86.07;101949.75;5011024;28;20096;-48
2022/05/20 06:21:37;;;;;;;19.25;12.23;;;;;;;15.92;86.63;101957.19;5010416;28;20046;-47
2022/05/20 06:24:05;;;;;;;38.45;27.65;;;;;;;15.97;86.91;101970.09;5011659;28;20054;-47
2022/05/20 06:26:33;;;;;;;18.95;13.10;;;;;;;16.02;86.97;101967.34;5010460;28;20046;-47
2022/05/20 06:29:00;;;;;;;21.83;13.13;;;;;;;15.98;85.43;101967.06;4993466;28;20056;-48
2022/05/20 06:31:28;;;;;;;19.20;10.88;;;;;;;15.98;85.17;101960.75;5030184;28;20037;-47
2022/05/20 06:33:57;;;;;;;18.33;13.35;;;;;;;16.04;83.88;101961.53;5018761;28;20053;-47
2022/05/20 06:42:15;;;;;;;15.88;10.38;;;;;;;16.15;83.65;101957.69;4928264;29;20085;-48
2022/05/20 06:44:45;;;;;;;19.63;12.15;;;;;;;16.13;81.77;101955.19;4991585;28;20528;-47
2022/05/20 06:47:13;;;;;;;16.33;8.15;;;;;;;16.17;82.05;101958.25;5012990;28;20096;-48
2022/05/20 06:49:40;;;;;;;20.65;10.45;;;;;;;16.16;81.58;101951.91;5011130;28;20046;-47
2022/05/20 06:52:08;;;;;;;20.75;11.15;;;;;;;16.20;81.79;101941.16;5008094;28;20041;-47
2022/05/20 06:54:56;;;;;;;23.95;12.85;;;;;;;16.23;80.97;101940.59;5008584;28;20038;-47
2022/05/20 06:57:24;;;;;;;27.33;10.88;;;;;;;16.34;81.00;101941.41;5012067;28;20042;-47
2022/05/20 06:59:52;;;;;;;18.60;10.20;;;;;;;16.43;79.77;101933.41;5007198;28;20045;-47
2022/05/20 07:02:20;;;;;;;29.75;14.55;;;;;;;16.48;80.55;101938.91;5012437;28;20066;-47
2022/05/20 07:04:57;;;;;;;20.02;10.57;;;;;;;16.48;80.89;101945.22;4995394;28;20120;-48
2022/05/20 07:07:25;;;;;;;17.33;9.80;;;;;;;16.37;79.17;101930.66;5011067;28;20053;-47
2022/05/20 07:09:53;;;;;;;20.90;10.15;;;;;;;16.34;79.80;101924.91;5013028;28;20124;-47
2022/05/20 07:12:20;;;;;;;16.88;9.02;;;;;;;16.34;78.51;101927.66;5012781;28;20069;-44
2022/05/20 07:14:48;;;;;;;16.38;8.77;;;;;;;16.40;77.95;101929.28;5012492;28;20046;-49
2022/05/20 07:17:17;;;;;;;14.55;8.95;;;;;;;16.40;76.76;101923.78;5010319;28;20049;-46
2022/05/20 07:19:45;;;;;;;14.45;8.35;;;;;;;16.38;74.74;101920.50;5010543;28;20050;-46
2022/05/20 07:22:12;;;;;;;15.70;7.97;;;;;;;16.32;76.14;101905.13;5012172;28;20517;-47
2022/05/20 07:24:40;;;;;;;14.25;8.55;;;;;;;16.39;75.92;101905.66;5011500;28;20070;-47
2022/05/20 07:27:08;;;;;;;14.15;8.00;;;;;;;16.46;75.54;101899.84;4994899;28;20038;-46
2022/05/20 07:29:36;;;;;;;13.13;7.35;;;;;;;16.51;75.58;101897.88;5012756;28;20074;-47
2022/05/20 07:32:04;;;;;;;13.82;7.90;;;;;;;16.59;75.28;101888.22;4992112;28;20064;-47
2022/05/20 07:34:33;;;;;;;14.27;8.05;;;;;;;16.65;74.69;101889.03;5009052;28;20448;-47
2022/05/20 07:37:01;;;;;;;14.80;8.70;;;;;;;16.69;75.10;101887.34;5009847;28;20042;-47
2022/05/20 07:39:28;;;;;;;13.70;8.13;;;;;;;16.67;73.96;101878.53;5012455;28;20165;-48
2022/05/20 07:41:56;;;;;;;13.02;7.75;;;;;;;16.66;74.35;101865.91;5019319;28;20052;-47
2022/05/20 07:44:23;;;;;;;12.85;7.70;;;;;;;16.75;74.60;101869.72;5003596;28;20417;-48
2022/05/20 07:46:51;;;;;;;12.98;7.28;;;;;;;16.85;74.55;101874.38;5024591;28;20045;-47
2022/05/20 07:49:19;;;;;;;13.93;7.53;;;;;;;16.91;73.25;101874.06;5029234;28;20480;-45
2022/05/20 07:51:49;;;;;;;12.88;6.25;;;;;;;16.96;73.37;101874.00;5014587;28;20492;-46
2022/05/20 07:54:22;;;;;;;14.50;7.60;;;;;;;16.97;71.75;101877.59;5002110;28;20064;-48
2022/05/20 07:56:57;;;;;;;13.98;6.97;;;;;;;16.97;70.57;101867.38;5001973;28;20041;-49
2022/05/20 07:59:30;;;;;;;14.30;6.75;;;;;;;16.96;69.97;101865.75;5029937;28;20050;-46
2022/05/20 08:01:59;;;;;;;10.95;6.47;;;;;;;16.99;70.29;101862.44;5015179;28;20045;-47
2022/05/20 08:04:55;;;;;;;14.38;8.00;;;;;;;17.02;70.96;101864.59;5022327;28;20040;-49
2022/05/20 08:07:28;;;;;;;14.52;7.43;;;;;;;17.08;72.02;101859.06;5015856;28;20057;-46
2022/05/20 08:09:56;;;;;;;13.13;6.28;;;;;;;17.15;71.88;101860.41;5028780;28;20441;-46
2022/05/20 08:12:24;;;;;;;15.60;7.97;;;;;;;17.25;71.99;101862.25;5030459;28;20109;-49
2022/05/20 08:14:52;;;;;;;13.75;7.60;;;;;;;17.31;71.43;101861.06;5024090;28;20091;-49
2022/05/20 08:17:21;;;;;;;14.02;6.80;;;;;;;17.38;71.84;101855.25;5030937;28;20034;-44
2022/05/20 08:19:51;;;;;;;13.50;6.85;;;;;;;17.45;71.44;101841.97;5028505;28;20377;-45
2022/05/20 08:22:22;;;;;;;13.05;5.93;;;;;;;17.46;69.99;101841.69;5032882;28;20053;-49
2022/05/20 08:24:52;;;;;;;15.73;5.93;;;;;;;17.47;69.00;101842.50;5027773;28;20498;-46
2022/05/20 08:27:24;;;;;;;14.13;6.55;;;;;;;17.53;68.41;101843.25;5019093;28;20034;-46
2022/05/20 08:29:52;;;;;;;10.52;5.25;;;;;;;17.56;66.69;101839.94;5029810;28;20037;-46
2022/05/20 08:32:20;;;;;;;15.52;6.05;;;;;;;17.59;67.32;101839.34;5017053;28;20065;-46
2022/05/20 08:34:48;;;;;;;16.90;7.88;;;;;;;17.59;68.49;101840.16;5032322;28;20061;-48
2022/05/20 08:37:17;;;;;;;8.85;4.28;;;;;;;17.60;70.09;101835.47;5033815;28;20040;-46
2022/05/20 08:39:45;;;;;;;13.70;7.15;;;;;;;17.69;70.49;101833.72;5034300;28;20049;-46
2022/05/20 08:42:19;;;;;;;13.63;5.57;;;;;;;17.66;68.13;101823.31;5003256;28;20051;-46
2022/05/20 08:44:47;;;;;;;11.15;5.53;;;;;;;17.66;68.06;101828.81;4983119;28;20049;-47
2022/05/20 08:47:38;;;;;;;10.95;3.80;;;;;;;17.72;70.06;101816.59;5011969;28;20057;-47
2022/05/20 08:50:12;;;;;;;13.13;6.00;;;;;;;17.79;69.18;101803.28;5008111;28;20038;-46
2022/05/20 08:52:40;;;;;;;11.35;5.40;;;;;;;17.76;67.07;101794.81;5009535;28;20457;-47
2022/05/20 08:55:12;;;;;;;11.52;5.35;;;;;;;17.79;66.74;101789.50;4984717;28;20034;-45
2022/05/20 08:57:51;;;;;;;12.60;5.90;;;;;;;17.78;67.04;101774.09;5005464;28;20052;-48
2022/05/20 09:00:19;;;;;;;13.13;5.10;;;;;;;17.85;67.81;101763.56;5009034;28;20475;-45
2022/05/20 09:02:46;;;;;;;11.95;5.10;;;;;;;17.90;66.92;101751.66;5012884;28;20500;-46
2022/05/20 09:05:21;;;;;;;8.73;3.92;;;;;;;17.97;65.69;101754.06;5002233;28;20051;-46
2022/05/20 09:07:57;;;;;;;11.25;5.25;;;;;;;18.01;65.47;101746.81;5005489;28;20049;-48
2022/05/20 09:10:53;;;;;;;9.60;4.72;;;;;;;18.07;65.18;101740.13;5014579;28;20413;-48
2022/05/20 09:16:21;;;;;;;8.65;4.13;;;;;;;18.09;63.58;101743.44;5010341;28;20042;-46
2022/05/20 09:19:04;;;;;;;9.15;4.07;;;;;;;18.11;64.15;101743.91;5013880;28;20504;-47
2022/05/20 09:21:43;;;;;;;12.80;6.72;;;;;;;18.17;63.83;101740.00;4989858;28;20501;-47
2022/05/20 09:24:20;;;;;;;13.27;6.25;;;;;;;18.26;61.99;101746.50;5012111;28;20050;-50
2022/05/20 09:27:09;;;;;;;9.57;3.63;;;;;;;18.29;66.94;101743.13;4993701;28;20044;-45
2022/05/20 09:30:05;;;;;;;8.88;3.80;;;;;;;18.52;71.47;101735.91;5005580;28;20042;-44
2022/05/20 09:32:40;;;;;;;8.80;4.68;;;;;;;18.46;63.62;101734.31;5002752;28;20081;-46
2022/05/20 09:35:34;;;;;;;11.20;4.55;;;;;;;18.50;68.62;101723.53;4994147;28;20562;-45
2022/05/20 09:38:10;;;;;;;10.05;4.85;;;;;;;18.47;65.02;101718.56;5004324;28;20059;-44
2022/05/20 09:40:47;;;;;;;9.57;5.47;;;;;;;18.52;64.56;101707.50;4989158;28;20925;-46
2022/05/20 09:43:28;;;;;;;12.93;5.88;;;;;;;18.48;64.73;101693.44;5013480;28;20431;-48
2022/05/20 09:45:58;;;;;;;14.82;6.72;;;;;;;18.53;64.97;101687.03;5015454;28;20046;-46
2022/05/20 09:48:51;;;;;;;13.48;6.38;;;;;;;18.54;65.29;101677.63;5021407;28;20136;-47
2022/05/20 09:51:25;;;;;;;10.20;5.65;;;;;;;18.57;64.92;101681.72;5007896;28;20050;-49
2022/05/20 09:54:21;;;;;;;11.38;6.38;;;;;;;18.57;65.63;101677.03;5015242;28;20540;-47
2022/05/20 09:57:04;;;;;;;14.93;6.70;;;;;;;18.63;65.46;101675.81;4998084;28;20045;-46
2022/05/20 09:59:46;;;;;;;11.32;5.85;;;;;;;18.66;66.25;101666.13;5029028;28;20540;-47
2022/05/20 10:02:58;;;;;;;13.05;7.10;;;;;;;18.71;67.04;101653.06;5031992;28;20077;-48
2022/05/20 10:05:49;;;;;;;12.57;7.05;;;;;;;18.73;66.50;101648.03;5022587;28;20095;-51
2022/05/20 10:08:35;;;;;;;13.60;7.82;;;;;;;18.67;66.14;101632.69;5014326;28;20049;-48
2022/05/20 10:11:25;;;;;;;13.27;7.85;;;;;;;18.76;68.59;101619.06;5015264;28;20099;-44
2022/05/20 10:13:59;;;;;;;21.40;10.23;;;;;;;18.86;67.55;101609.75;5014403;28;20544;-50
2022/05/20 10:16:54;;;;;;;21.25;11.65;;;;;;;18.89;66.35;101598.09;5014348;28;20045;-46
2022/05/20 10:19:36;;;;;;;23.17;10.88;;;;;;;18.90;66.83;101591.44;4996546;28;20131;-46
2022/05/20 10:22:45;;;;;;;16.92;9.48;;;;;;;18.92;68.18;101589.19;5032769;28;20049;-44
2022/05/20 10:25:36;;;;;;;16.60;8.98;;;;;;;18.99;67.74;101581.31;5025556;28;20057;-44
2022/05/20 10:34:19;;;;;;;26.30;13.80;;;;;;;19.13;68.68;101546.22;5014622;28;20050;-45
2022/05/20 10:37:06;;;;;;;15.38;9.48;;;;;;;19.20;67.97;101536.72;4999369;28;20048;-46
2022/05/20 10:40:01;;;;;;;24.23;10.85;;;;;;;19.23;68.46;101533.34;5032882;28;20041;-47
2022/05/20 10:42:47;;;;;;;17.55;10.02;;;;;;;19.25;68.91;101522.78;5026993;28;20050;-47
2022/05/20 10:48:56;;;;;;;20.02;9.55;;;;;;;19.28;69.07;101516.63;4998918;28;20053;-47
2022/05/20 10:51:51;;;;;;;19.33;10.13;;;;;;;19.24;69.28;101501.81;4957326;28;20050;-47
2022/05/20 10:54:37;;;;;;;22.23;11.82;;;;;;;19.24;69.59;101493.50;4997026;28;20041;-46
2022/05/20 10:57:13;;;;;;;16.20;9.68;;;;;;;19.24;70.06;101477.78;5013453;28;20092;-47
2022/05/20 10:59:42;;;;;;;18.35;10.70;;;;;;;19.26;70.22;101460.88;5012835;28;20494;-46
2022/05/20 11:02:32;;;;;;;16.17;9.80;;;;;;;19.34;70.10;101446.34;5013080;28;20049;-47
2022/05/20 11:05:16;;;;;;;16.17;8.25;;;;;;;19.38;70.35;101430.75;5016641;28;20465;-46
2022/05/20 11:07:53;;;;;;;17.27;7.72;;;;;;;19.46;70.10;101421.72;5012983;28;20053;-46
2022/05/20 11:10:36;;;;;;;18.55;9.70;;;;;;;19.52;70.28;101403.84;5015570;28;20496;-46
2022/05/20 11:13:07;;;;;;;16.35;10.43;;;;;;;19.58;69.96;101385.22;5023958;28;20042;-45
2022/05/20 11:15:59;;;;;;;20.33;11.25;;;;;;;19.62;69.76;101374.34;5015129;28;20116;-47
2022/05/20 11:18:38;;;;;;;19.48;11.27;;;;;;;19.62;69.72;101354.97;4997667;28;20034;-48
2022/05/20 11:21:36;;;;;;;16.58;9.55;;;;;;;19.62;69.81;101352.22;5032717;28;20100;-44
2022/05/20 11:24:26;;;;;;;15.38;8.40;;;;;;;19.64;70.09;101349.97;5029840;28;20041;-46
2022/05/20 11:27:06;;;;;;;19.13;12.32;;;;;;;19.67;69.81;101346.56;5022886;28;20094;-49
2022/05/20 11:29:41;;;;;;;15.73;8.45;;;;;;;19.68;70.03;101334.41;5032527;28;20049;-47
2022/05/20 11:32:11;;;;;;;13.52;7.50;;;;;;;19.71;70.21;101339.28;4998609;28;20053;-46
2022/05/20 11:34:59;;;;;;;19.67;10.95;;;;;;;19.71;71.18;101334.56;5014331;28;20519;-46
2022/05/20 11:37:55;;;;;;;19.80;8.70;;;;;;;19.78;70.67;101320.31;4980408;28;20586;-50
2022/05/20 11:40:29;;;;;;;18.73;12.38;;;;;;;19.79;70.37;101320.00;4980748;28;20460;-47
2022/05/20 11:43:05;;;;;;;13.65;6.75;;;;;;;19.79;70.50;101308.94;5002645;28;20520;-46
2022/05/20 11:46:00;;;;;;;23.98;14.60;;;;;;;19.77;71.27;101300.13;4997923;28;20049;-45
2022/05/20 11:48:46;;;;;;;11.10;6.28;;;;;;;19.77;71.57;101299.28;4997979;28;20445;-46
2022/05/20 11:51:41;;;;;;;21.88;14.50;;;;;;;19.73;71.80;101301.09;4980290;28;20136;-46
2022/05/20 11:54:18;;;;;;;17.90;9.32;;;;;;;19.69;72.15;101309.19;4996981;28;20505;-46
2022/05/20 11:56:51;;;;;;;21.88;11.02;;;;;;;19.64;72.39;101306.53;4979797;28;20060;-44
2022/05/20 11:59:23;;;;;;;25.80;14.00;;;;;;;19.61;73.11;101298.88;4996942;28;20052;-46
2022/05/20 12:01:55;;;;;;;21.90;13.05;;;;;;;19.58;73.14;101286.50;5015776;28;20048;-47
2022/05/20 12:04:28;;;;;;;22.80;13.40;;;;;;;19.58;73.09;101275.47;4299435;28;10000680;-42
2022/05/20 12:07:01;;;;;;;20.05;12.80;;;;;;;19.55;73.88;101267.81;4975903;28;20042;-48
2022/05/20 12:09:34;;;;;;;17.13;9.05;;;;;;;19.54;73.67;101279.97;4985285;28;20038;-47
2022/05/20 12:12:15;;;;;;;16.48;9.55;;;;;;;19.51;73.33;101277.88;4987476;28;20049;-48
2022/05/20 12:15:09;;;;;;;19.63;12.10;;;;;;;19.49;74.45;101269.06;5012431;28;20038;-47
2022/05/20 12:17:45;;;;;;;25.23;16.10;;;;;;;19.49;75.89;101246.97;5009974;28;20060;-46
2022/05/20 12:26:17;;;;;;;27.38;17.17;;;;;;;19.37;80.15;101268.84;5012484;28;20045;-46
2022/05/20 12:28:45;;;;;;;27.15;16.50;;;;;;;19.34;85.54;101252.91;5001010;28;20058;-49